sensor_id;sensor_type;location;lat;lon;timestamp;pressure;altitude;pressure_sealevel;temperature;humidity
9935;BME280;5006;41.828;23.478;2022-12-18T12:55:19;91241.56;;;7.98;100.00
9935;BME280;5006;41.828;23.478;2022-12-18T12:56:36;91243.03;;;7.95;100.00
9935;BME280;5006;41.828;23.478;2022-12-18T12:57:51;91242.63;;;7.78;100.00
9935;BME280;5006;41.828;23.478;2022-12-18T12:59:05;91242.63;;;7.78;100.00
9935;BME280;5006;41.828;23.478;2022-12-18T13:00:18;91248.56;;;7.56;100.00
9935;BME280;5006;41.828;23.478;2022-12-18T13:01:28;91247.19;;;7.46;100.00
9935;BME280;5006;41.828;23.478;2022-12-18T13:02:43;91251.50;;;7.35;100.00
9935;BME280;5006;41.828;23.478;2022-12-18T13:04:02;91250.75;;;7.35;100.00
9935;BME280;5006;41.828;23.478;2022-12-18T13:05:16;91258.06;;;7.38;100.00
9935;BME280;5006;41.828;23.478;2022-12-18T13:06:33;91260.44;;;7.27;100.00
9935;BME280;5006;41.828;23.478;2022-12-18T13:07:47;91263.19;;;7.31;100.00
9935;BME280;5006;41.828;23.478;2022-12-18T13:08:57;91260.19;;;7.32;100.00
9935;BME280;5006;41.828;23.478;2022-12-18T13:10:24;91268.09;;;7.29;100.00
9935;BME280;5006;41.828;23.478;2022-12-18T13:11:38;91268.09;;;7.29;100.00
9935;BME280;5006;41.828;23.478;2022-12-18T13:13:04;91278.25;;;7.23;100.00
9935;BME280;5006;41.828;23.478;2022-12-18T13:14:20;91267.41;;;7.16;100.00
9935;BME280;5006;41.828;23.478;2022-12-18T13:15:33;91272.13;;;7.07;100.00
9935;BME280;5006;41.828;23.478;2022-12-18T13:16:39;91269.34;;;7.04;100.00
9935;BME280;5006;41.828;23.478;2022-12-18T13:17:44;91273.47;;;7.01;100.00
9935;BME280;5006;41.828;23.478;2022-12-18T13:18:50;91269.50;;;6.95;100.00
9935;BME280;5006;41.828;23.478;2022-12-18T13:20:06;91260.13;;;6.86;100.00
9935;BME280;5006;41.828;23.478;2022-12-18T13:21:20;91268.06;;;6.98;100.00
9935;BME280;5006;41.828;23.478;2022-12-18T13:22:30;91270.56;;;6.79;100.00
9935;BME280;5006;41.828;23.478;2022-12-18T13:23:36;91264.91;;;6.80;100.00
9935;BME280;5006;41.828;23.478;2022-12-18T13:24:42;91266.47;;;6.81;100.00
9935;BME280;5006;41.828;23.478;2022-12-18T13:25:48;91270.56;;;6.79;100.00
9935;BME280;5006;41.828;23.478;2022-12-18T13:26:54;91269.63;;;6.71;100.00
9935;BME280;5006;41.828;23.478;2022-12-18T13:28:04;91267.28;;;6.70;100.00
9935;BME280;5006;41.828;23.478;2022-12-18T13:29:09;91280.00;;;6.61;100.00
9935;BME280;5006;41.828;23.478;2022-12-18T13:30:52;91276.31;;;6.65;100.00
9935;BME280;5006;41.828;23.478;2022-12-18T13:32:00;91279.19;;;6.60;100.00
9935;BME280;5006;41.828;23.478;2022-12-18T13:35:37;91270.53;;;6.63;100.00
9935;BME280;5006;41.828;23.478;2022-12-18T13:36:43;91281.53;;;6.62;100.00
9935;BME280;5006;41.828;23.478;2022-12-18T13:37:52;91274.94;;;6.71;100.00
9935;BME280;5006;41.828;23.478;2022-12-18T13:39:21;91276.84;;;6.71;100.00
9935;BME280;5006;41.828;23.478;2022-12-18T13:40:56;91269.19;;;6.69;100.00
9935;BME280;5006;41.828;23.478;2022-12-18T13:42:37;91284.88;;;6.59;100.00
9935;BME280;5006;41.828;23.478;2022-12-18T13:44:11;91282.66;;;6.61;100.00
9935;BME280;5006;41.828;23.478;2022-12-18T13:45:37;91281.69;;;6.53;100.00
9935;BME280;5006;41.828;23.478;2022-12-18T13:46:48;91290.56;;;6.45;100.00
9935;BME280;5006;41.828;23.478;2022-12-18T13:47:55;91293.38;;;6.37;100.00
9935;BME280;5006;41.828;23.478;2022-12-18T13:49:03;91292.59;;;6.25;100.00
9935;BME280;5006;41.828;23.478;2022-12-18T13:50:22;91293.09;;;6.03;100.00
9935;BME280;5006;41.828;23.478;2022-12-18T13:51:31;91291.31;;;6.07;100.00
9935;BME280;5006;41.828;23.478;2022-12-18T13:52:39;91286.66;;;6.04;100.00
9935;BME280;5006;41.828;23.478;2022-12-18T13:53:50;91287.53;;;6.08;100.00
9935;BME280;5006;41.828;23.478;2022-12-18T13:54:59;91293.31;;;5.98;100.00
9935;BME280;5006;41.828;23.478;2022-12-18T13:56:09;91295.22;;;5.97;100.00
9935;BME280;5006;41.828;23.478;2022-12-18T13:57:26;91300.41;;;6.06;100.00
9935;BME280;5006;41.828;23.478;2022-12-18T13:58:33;91291.56;;;6.02;100.00
9935;BME280;5006;41.828;23.478;2022-12-18T13:59:39;91307.53;;;5.90;100.00
9935;BME280;5006;41.828;23.478;2022-12-18T14:00:45;91299.53;;;6.02;100.00
9935;BME280;5006;41.828;23.478;2022-12-18T14:01:53;91296.09;;;6.01;100.00
9935;BME280;5006;41.828;23.478;2022-12-18T14:03:00;91295.75;;;6.03;100.00
9935;BME280;5006;41.828;23.478;2022-12-18T14:04:09;91296.63;;;6.07;100.00
9935;BME280;5006;41.828;23.478;2022-12-18T14:05:21;91306.19;;;5.96;100.00
9935;BME280;5006;41.828;23.478;2022-12-18T14:06:27;91300.66;;;5.89;100.00
9935;BME280;5006;41.828;23.478;2022-12-18T14:07:32;91300.75;;;5.92;100.00
9935;BME280;5006;41.828;23.478;2022-12-18T14:08:39;91308.84;;;5.96;100.00
9935;BME280;5006;41.828;23.478;2022-12-18T14:09:48;91296.97;;;6.05;100.00
9935;BME280;5006;41.828;23.478;2022-12-18T14:10:55;91308.97;;;5.99;100.00
9935;BME280;5006;41.828;23.478;2022-12-18T14:12:02;91311.41;;;5.92;100.00
9935;BME280;5006;41.828;23.478;2022-12-18T14:13:29;91313.63;;;6.02;100.00
9935;BME280;5006;41.828;23.478;2022-12-18T14:14:42;91310.28;;;5.93;100.00
9935;BME280;5006;41.828;23.478;2022-12-18T14:15:52;91301.53;;;5.93;100.00
9935;BME280;5006;41.828;23.478;2022-12-18T14:17:09;91312.50;;;5.79;100.00
9935;BME280;5006;41.828;23.478;2022-12-18T14:18:20;91303.63;;;5.75;100.00
9935;BME280;5006;41.828;23.478;2022-12-18T14:19:27;91306.53;;;5.82;100.00
9935;BME280;5006;41.828;23.478;2022-12-18T14:20:34;91313.06;;;5.85;100.00
9935;BME280;5006;41.828;23.478;2022-12-18T14:21:40;91322.56;;;5.74;100.00
9935;BME280;5006;41.828;23.478;2022-12-18T14:22:48;91318.34;;;5.61;100.00
9935;BME280;5006;41.828;23.478;2022-12-18T14:24:06;91318.25;;;5.69;100.00
9935;BME280;5006;41.828;23.478;2022-12-18T14:25:19;91315.59;;;5.57;100.00
9935;BME280;5006;41.828;23.478;2022-12-18T14:26:26;91312.13;;;5.57;100.00
9935;BME280;5006;41.828;23.478;2022-12-18T14:27:41;91323.75;;;5.52;100.00
9935;BME280;5006;41.828;23.478;2022-12-18T14:28:47;91313.25;;;5.56;100.00
9935;BME280;5006;41.828;23.478;2022-12-18T14:29:53;91325.66;;;5.52;100.00
9935;BME280;5006;41.828;23.478;2022-12-18T14:30:59;91320.53;;;5.47;100.00
9935;BME280;5006;41.828;23.478;2022-12-18T14:32:06;91318.78;;;5.51;100.00
9935;BME280;5006;41.828;23.478;2022-12-18T14:33:14;91330.53;;;5.50;100.00
9935;BME280;5006;41.828;23.478;2022-12-18T14:34:26;91333.09;;;5.46;100.00
9935;BME280;5006;41.828;23.478;2022-12-18T14:35:30;91327.06;;;5.37;100.00
9935;BME280;5006;41.828;23.478;2022-12-18T14:36:36;91335.72;;;5.34;100.00
9935;BME280;5006;41.828;23.478;2022-12-18T14:37:44;91337.50;;;5.30;100.00
9935;BME280;5006;41.828;23.478;2022-12-18T14:38:51;91329.50;;;5.30;100.00
9935;BME280;5006;41.828;23.478;2022-12-18T14:39:59;91336.38;;;5.31;100.00
9935;BME280;5006;41.828;23.478;2022-12-18T14:41:11;91341.75;;;5.23;100.00
9935;BME280;5006;41.828;23.478;2022-12-18T14:42:17;91332.03;;;5.27;100.00
9935;BME280;5006;41.828;23.478;2022-12-18T14:43:23;91339.09;;;5.23;100.00
9935;BME280;5006;41.828;23.478;2022-12-18T14:44:29;91322.34;;;5.10;100.00
9935;BME280;5006;41.828;23.478;2022-12-18T14:45:36;91347.53;;;5.13;100.00
9935;BME280;5006;41.828;23.478;2022-12-18T14:46:44;91343.75;;;5.14;100.00
9935;BME280;5006;41.828;23.478;2022-12-18T14:47:50;91337.66;;;5.13;100.00
9935;BME280;5006;41.828;23.478;2022-12-18T14:48:56;91336.22;;;5.16;100.00
9935;BME280;5006;41.828;23.478;2022-12-18T14:50:02;91347.41;;;5.09;100.00
9935;BME280;5006;41.828;23.478;2022-12-18T14:51:16;91344.28;;;5.07;100.00
9935;BME280;5006;41.828;23.478;2022-12-18T14:52:29;91341.06;;;5.02;100.00
9935;BME280;5006;41.828;23.478;2022-12-18T14:53:39;91338.84;;;5.04;100.00
9935;BME280;5006;41.828;23.478;2022-12-18T14:54:46;91339.50;;;5.01;100.00
9935;BME280;5006;41.828;23.478;2022-12-18T14:55:52;91337.41;;;5.06;100.00
9935;BME280;5006;41.828;23.478;2022-12-18T14:56:59;91345.84;;;5.08;100.00
9935;BME280;5006;41.828;23.478;2022-12-18T14:58:12;91348.38;;;5.05;100.00
9935;BME280;5006;41.828;23.478;2022-12-18T14:59:21;91346.78;;;4.92;100.00
9935;BME280;5006;41.828;23.478;2022-12-18T15:00:28;91347.03;;;4.99;100.00
9935;BME280;5006;41.828;23.478;2022-12-18T15:01:35;91343.13;;;4.96;100.00
9935;BME280;5006;41.828;23.478;2022-12-18T15:02:42;91345.94;;;5.00;100.00
9935;BME280;5006;41.828;23.478;2022-12-18T15:03:47;91339.69;;;4.96;100.00
9935;BME280;5006;41.828;23.478;2022-12-18T15:05:00;91339.38;;;4.97;100.00
9935;BME280;5006;41.828;23.478;2022-12-18T15:06:17;91337.94;;;5.00;100.00
9935;BME280;5006;41.828;23.478;2022-12-18T15:07:24;91336.28;;;4.95;100.00
9935;BME280;5006;41.828;23.478;2022-12-18T15:08:34;91332.25;;;4.89;100.00
9935;BME280;5006;41.828;23.478;2022-12-18T15:09:43;91335.25;;;4.88;100.00
9935;BME280;5006;41.828;23.478;2022-12-18T15:10:50;91339.47;;;4.89;100.00
9935;BME280;5006;41.828;23.478;2022-12-18T15:11:56;91336.53;;;4.82;100.00
9935;BME280;5006;41.828;23.478;2022-12-18T15:13:08;91341.19;;;4.85;100.00
9935;BME280;5006;41.828;23.478;2022-12-18T15:14:38;91344.72;;;4.77;100.00
9935;BME280;5006;41.828;23.478;2022-12-18T15:15:45;91345.47;;;4.77;100.00
9935;BME280;5006;41.828;23.478;2022-12-18T15:16:53;91352.34;;;4.78;100.00
9935;BME280;5006;41.828;23.478;2022-12-18T15:18:03;91352.03;;;4.80;100.00
9935;BME280;5006;41.828;23.478;2022-12-18T15:19:10;91344.72;;;4.77;100.00
9935;BME280;5006;41.828;23.478;2022-12-18T15:20:16;91352.81;;;4.80;100.00
9935;BME280;5006;41.828;23.478;2022-12-18T15:21:22;91350.34;;;4.75;100.00
9935;BME280;5006;41.828;23.478;2022-12-18T15:22:30;91349.59;;;4.75;100.00
9935;BME280;5006;41.828;23.478;2022-12-18T15:23:48;91355.34;;;4.77;100.00
9935;BME280;5006;41.828;23.478;2022-12-18T15:24:55;91355.00;;;4.78;100.00
9935;BME280;5006;41.828;23.478;2022-12-18T15:26:03;91352.47;;;4.82;100.00
9935;BME280;5006;41.828;23.478;2022-12-18T15:27:20;91356.25;;;4.81;100.00
9935;BME280;5006;41.828;23.478;2022-12-18T15:28:30;91362.97;;;4.78;100.00
9935;BME280;5006;41.828;23.478;2022-12-18T15:29:39;91364.56;;;4.79;100.00
9935;BME280;5006;41.828;23.478;2022-12-18T15:30:58;91367.31;;;4.83;100.00
9935;BME280;5006;41.828;23.478;2022-12-18T15:32:05;91363.91;;;4.82;100.00
9935;BME280;5006;41.828;23.478;2022-12-18T15:33:24;91365.00;;;4.81;100.00
9935;BME280;5006;41.828;23.478;2022-12-18T15:34:29;91359.78;;;4.73;100.00
9935;BME280;5006;41.828;23.478;2022-12-18T15:35:35;91372.00;;;4.65;100.00
9935;BME280;5006;41.828;23.478;2022-12-18T15:36:40;91362.94;;;4.66;100.00
9935;BME280;5006;41.828;23.478;2022-12-18T15:37:47;91365.91;;;4.65;100.00
9935;BME280;5006;41.828;23.478;2022-12-18T15:38:53;91365.59;;;4.66;100.00
9935;BME280;5006;41.828;23.478;2022-12-18T15:39:59;91366.63;;;4.74;100.00
9935;BME280;5006;41.828;23.478;2022-12-18T15:41:11;91371.81;;;4.70;100.00
9935;BME280;5006;41.828;23.478;2022-12-18T15:42:16;91375.22;;;4.71;100.00
9935;BME280;5006;41.828;23.478;2022-12-18T15:43:40;91376.47;;;4.73;100.00
9935;BME280;5006;41.828;23.478;2022-12-18T15:44:46;91363.78;;;4.79;100.00
9935;BME280;5006;41.828;23.478;2022-12-18T15:45:52;91370.19;;;4.78;100.00
9935;BME280;5006;41.828;23.478;2022-12-18T15:46:58;91381.72;;;4.82;100.00
9935;BME280;5006;41.828;23.478;2022-12-18T15:48:15;91369.66;;;4.84;100.00
9935;BME280;5006;41.828;23.478;2022-12-18T15:49:22;91373.22;;;4.88;100.00
9935;BME280;5006;41.828;23.478;2022-12-18T15:50:28;91372.31;;;4.84;100.00
9935;BME280;5006;41.828;23.478;2022-12-18T15:51:35;91376.09;;;4.83;100.00
9935;BME280;5006;41.828;23.478;2022-12-18T15:52:44;91375.94;;;4.80;100.00
9935;BME280;5006;41.828;23.478;2022-12-18T15:53:52;91379.72;;;4.79;100.00
9935;BME280;5006;41.828;23.478;2022-12-18T15:54:59;91365.84;;;4.73;100.00
9935;BME280;5006;41.828;23.478;2022-12-18T15:56:23;91377.44;;;4.69;100.00
9935;BME280;5006;41.828;23.478;2022-12-18T15:57:46;91371.69;;;4.67;100.00
9935;BME280;5006;41.828;23.478;2022-12-18T15:58:52;91373.56;;;4.66;100.00
9935;BME280;5006;41.828;23.478;2022-12-18T15:59:59;91371.22;;;4.65;100.00
9935;BME280;5006;41.828;23.478;2022-12-18T16:01:07;91375.88;;;4.68;100.00
9935;BME280;5006;41.828;23.478;2022-12-18T16:02:16;91370.00;;;4.62;100.00
9935;BME280;5006;41.828;23.478;2022-12-18T16:03:22;91383.63;;;4.61;100.00
9935;BME280;5006;41.828;23.478;2022-12-18T16:04:27;91386.06;;;4.66;100.00
9935;BME280;5006;41.828;23.478;2022-12-18T16:05:33;91384.38;;;4.61;100.00
9935;BME280;5006;41.828;23.478;2022-12-18T16:06:38;91381.53;;;4.66;100.00
9935;BME280;5006;41.828;23.478;2022-12-18T16:07:44;91377.66;;;4.64;100.00
9935;BME280;5006;41.828;23.478;2022-12-18T16:08:50;91385.63;;;4.64;100.00
9935;BME280;5006;41.828;23.478;2022-12-18T16:09:55;91382.97;;;4.64;100.00
9935;BME280;5006;41.828;23.478;2022-12-18T16:11:01;91388.28;;;4.64;100.00
9935;BME280;5006;41.828;23.478;2022-12-18T16:12:14;91379.66;;;4.67;100.00
9935;BME280;5006;41.828;23.478;2022-12-18T16:13:20;91386.97;;;4.70;100.00
9935;BME280;5006;41.828;23.478;2022-12-18T16:14:27;91381.34;;;4.71;100.00
9935;BME280;5006;41.828;23.478;2022-12-18T16:15:34;91390.06;;;4.72;100.00
9935;BME280;5006;41.828;23.478;2022-12-18T16:16:39;91382.22;;;4.75;100.00
9935;BME280;5006;41.828;23.478;2022-12-18T16:17:44;91387.69;;;4.79;100.00
9935;BME280;5006;41.828;23.478;2022-12-18T16:18:49;91385.03;;;4.79;100.00
9935;BME280;5006;41.828;23.478;2022-12-18T16:19:54;91380.81;;;4.78;100.00
9935;BME280;5006;41.828;23.478;2022-12-18T16:21:00;91384.72;;;4.80;100.00
9935;BME280;5006;41.828;23.478;2022-12-18T16:22:05;91384.06;;;4.83;100.00
9935;BME280;5006;41.828;23.478;2022-12-18T16:23:11;91381.53;;;4.87;100.00
9935;BME280;5006;41.828;23.478;2022-12-18T16:24:17;91386.19;;;4.90;100.00
9935;BME280;5006;41.828;23.478;2022-12-18T16:25:24;91387.75;;;4.91;100.00
9935;BME280;5006;41.828;23.478;2022-12-18T16:26:30;91393.63;;;4.96;100.00
9935;BME280;5006;41.828;23.478;2022-12-18T16:27:34;91397.41;;;4.95;100.00
9935;BME280;5006;41.828;23.478;2022-12-18T16:28:40;91392.53;;;4.97;100.00
9935;BME280;5006;41.828;23.478;2022-12-18T16:29:45;91393.28;;;4.98;100.00
9935;BME280;5006;41.828;23.478;2022-12-18T16:30:52;91396.16;;;4.93;100.00
9935;BME280;5006;41.828;23.478;2022-12-18T16:31:59;91389.09;;;4.97;100.00
9935;BME280;5006;41.828;23.478;2022-12-18T16:33:05;91390.53;;;4.94;100.00
9935;BME280;5006;41.828;23.478;2022-12-18T16:34:12;91395.41;;;4.92;100.00
9935;BME280;5006;41.828;23.478;2022-12-18T16:35:17;91390.84;;;4.93;100.00
9935;BME280;5006;41.828;23.478;2022-12-18T16:36:23;91402.38;;;4.97;100.00
9935;BME280;5006;41.828;23.478;2022-12-18T16:37:28;91398.59;;;4.98;100.00
9935;BME280;5006;41.828;23.478;2022-12-18T16:38:35;91395.94;;;4.98;100.00
9935;BME280;5006;41.828;23.478;2022-12-18T16:39:40;91398.97;;;4.96;100.00
9935;BME280;5006;41.828;23.478;2022-12-18T16:40:45;91405.16;;;5.00;100.00
9935;BME280;5006;41.828;23.478;2022-12-18T16:42:09;91394.88;;;4.99;100.00
9935;BME280;5006;41.828;23.478;2022-12-18T16:43:18;91398.59;;;4.98;100.00
9935;BME280;5006;41.828;23.478;2022-12-18T16:44:24;91390.19;;;4.96;100.00
9935;BME280;5006;41.828;23.478;2022-12-18T16:45:29;91400.19;;;4.99;100.00
9935;BME280;5006;41.828;23.478;2022-12-18T16:46:38;91395.44;;;5.04;100.00
9935;BME280;5006;41.828;23.478;2022-12-18T16:47:43;91397.59;;;5.11;100.00
9935;BME280;5006;41.828;23.478;2022-12-18T16:48:49;91397.09;;;5.09;100.00
9935;BME280;5006;41.828;23.478;2022-12-18T16:49:54;91384.59;;;5.09;100.00
9935;BME280;5006;41.828;23.478;2022-12-18T16:51:00;91392.91;;;5.08;100.00
9935;BME280;5006;41.828;23.478;2022-12-18T16:52:06;91397.47;;;5.07;100.00
9935;BME280;5006;41.828;23.478;2022-12-18T16:53:12;91393.13;;;5.03;100.00
9935;BME280;5006;41.828;23.478;2022-12-18T16:54:18;91393.88;;;5.03;100.00
9935;BME280;5006;41.828;23.478;2022-12-18T16:55:23;91401.97;;;5.07;100.00
9935;BME280;5006;41.828;23.478;2022-12-18T16:56:29;91394.44;;;5.09;100.00
9935;BME280;5006;41.828;23.478;2022-12-18T16:57:34;91399.91;;;5.12;100.00
9935;BME280;5006;41.828;23.478;2022-12-18T16:58:40;91396.25;;;5.17;100.00
9935;BME280;5006;41.828;23.478;2022-12-18T16:59:45;91395.41;;;5.25;100.00
9935;BME280;5006;41.828;23.478;2022-12-18T17:00:51;91400.16;;;5.19;100.00
9935;BME280;5006;41.828;23.478;2022-12-18T17:01:57;91392.28;;;5.23;100.00
9935;BME280;5006;41.828;23.478;2022-12-18T17:03:03;91392.19;;;5.19;100.00
9935;BME280;5006;41.828;23.478;2022-12-18T17:04:08;91393.56;;;5.05;100.00
9935;BME280;5006;41.828;23.478;2022-12-18T17:05:13;91397.47;;;5.07;100.00
9935;BME280;5006;41.828;23.478;2022-12-18T17:06:19;91406.19;;;5.08;100.00
9935;BME280;5006;41.828;23.478;2022-12-18T17:07:25;91404.78;;;5.10;100.00
9935;BME280;5006;41.828;23.478;2022-12-18T17:08:31;91409.94;;;5.07;100.00
9935;BME280;5006;41.828;23.478;2022-12-18T17:09:36;91402.63;;;5.04;100.00
9935;BME280;5006;41.828;23.478;2022-12-18T17:10:42;91403.25;;;4.89;100.00
9935;BME280;5006;41.828;23.478;2022-12-18T17:11:49;91403.25;;;4.89;100.00
9935;BME280;5006;41.828;23.478;2022-12-18T17:12:54;91411.44;;;4.96;100.00
9935;BME280;5006;41.828;23.478;2022-12-18T17:14:05;91406.16;;;4.75;100.00
9935;BME280;5006;41.828;23.478;2022-12-18T17:15:12;91412.84;;;4.81;100.00
9935;BME280;5006;41.828;23.478;2022-12-18T17:16:18;91415.34;;;4.78;100.00
9935;BME280;5006;41.828;23.478;2022-12-18T17:17:24;91412.34;;;4.59;100.00
9935;BME280;5006;41.828;23.478;2022-12-18T17:18:30;91422.41;;;4.53;100.00
9935;BME280;5006;41.828;23.478;2022-12-18T17:19:34;91429.59;;;4.53;100.00
9935;BME280;5006;41.828;23.478;2022-12-18T17:20:40;91425.69;;;4.50;100.00
9935;BME280;5006;41.828;23.478;2022-12-18T17:21:47;91434.13;;;4.23;100.00
9935;BME280;5006;41.828;23.478;2022-12-18T17:22:53;91445.59;;;4.07;100.00
9935;BME280;5006;41.828;23.478;2022-12-18T17:23:59;91430.69;;;3.94;100.00
9935;BME280;5006;41.828;23.478;2022-12-18T17:25:04;91440.38;;;3.90;100.00
9935;BME280;5006;41.828;23.478;2022-12-18T17:26:11;91444.31;;;3.84;100.00
9935;BME280;5006;41.828;23.478;2022-12-18T17:27:16;91451.31;;;3.89;100.00
9935;BME280;5006;41.828;23.478;2022-12-18T17:28:23;91449.75;;;3.88;100.00
9935;BME280;5006;41.828;23.478;2022-12-18T17:29:29;91444.50;;;3.71;100.00
9935;BME280;5006;41.828;23.478;2022-12-18T17:30:35;91451.69;;;3.79;100.00
9935;BME280;5006;41.828;23.478;2022-12-18T17:31:39;91451.84;;;3.65;100.00
9935;BME280;5006;41.828;23.478;2022-12-18T17:32:46;91452.34;;;3.59;100.00
9935;BME280;5006;41.828;23.478;2022-12-18T17:33:51;91455.31;;;3.57;100.00
9935;BME280;5006;41.828;23.478;2022-12-18T17:34:57;91454.22;;;3.50;100.00
9935;BME280;5006;41.828;23.478;2022-12-18T17:36:02;91459.06;;;3.56;100.00
9935;BME280;5006;41.828;23.478;2022-12-18T17:37:08;91452.19;;;3.55;100.00
9935;BME280;5006;41.828;23.478;2022-12-18T17:38:15;91446.28;;;3.50;100.00
9935;BME280;5006;41.828;23.478;2022-12-18T17:39:21;91450.34;;;3.47;100.00
9935;BME280;5006;41.828;23.478;2022-12-18T17:40:27;91447.81;;;3.51;100.00
9935;BME280;5006;41.828;23.478;2022-12-18T17:41:32;91460.31;;;3.50;100.00
9935;BME280;5006;41.828;23.478;2022-12-18T17:42:38;91452.38;;;3.50;100.00
9935;BME280;5006;41.828;23.478;2022-12-18T17:43:49;91455.03;;;3.50;100.00
9935;BME280;5006;41.828;23.478;2022-12-18T17:44:54;91451.28;;;3.51;100.00
9935;BME280;5006;41.828;23.478;2022-12-18T17:46:00;91455.03;;;3.50;100.00
9935;BME280;5006;41.828;23.478;2022-12-18T17:47:05;91457.38;;;3.52;100.00
9935;BME280;5006;41.828;23.478;2022-12-18T17:48:14;91457.69;;;3.50;100.00
9935;BME280;5006;41.828;23.478;2022-12-18T17:49:20;91448.31;;;3.53;100.00
9935;BME280;5006;41.828;23.478;2022-12-18T17:50:25;91456.56;;;3.51;100.00
9935;BME280;5006;41.828;23.478;2022-12-18T17:51:30;91452.81;;;3.52;100.00
9935;BME280;5006;41.828;23.478;2022-12-18T17:52:35;91444.56;;;3.54;100.00
9935;BME280;5006;41.828;23.478;2022-12-18T17:53:41;91449.88;;;3.54;100.00
9935;BME280;5006;41.828;23.478;2022-12-18T17:54:46;91445.78;;;3.56;100.00
9935;BME280;5006;41.828;23.478;2022-12-18T17:55:53;91451.22;;;3.68;100.00
9935;BME280;5006;41.828;23.478;2022-12-18T17:56:58;91453.84;;;3.77;100.00
9935;BME280;5006;41.828;23.478;2022-12-18T17:58:04;91455.72;;;3.76;100.00
9935;BME280;5006;41.828;23.478;2022-12-18T17:59:09;91450.53;;;3.88;100.00
9935;BME280;5006;41.828;23.478;2022-12-18T18:00:16;91456.75;;;3.92;100.00
9935;BME280;5006;41.828;23.478;2022-12-18T18:01:22;91457.22;;;3.94;100.00
9935;BME280;5006;41.828;23.478;2022-12-18T18:02:28;91451.75;;;3.99;100.00
9935;BME280;5006;41.828;23.478;2022-12-18T18:03:36;91450.47;;;4.05;100.00
9935;BME280;5006;41.828;23.478;2022-12-18T18:04:41;91448.25;;;4.07;100.00
9935;BME280;5006;41.828;23.478;2022-12-18T18:05:46;91455.34;;;3.95;100.00
9935;BME280;5006;41.828;23.478;2022-12-18T18:06:51;91457.06;;;3.99;100.00
9935;BME280;5006;41.828;23.478;2022-12-18T18:07:57;91461.72;;;4.02;100.00
9935;BME280;5006;41.828;23.478;2022-12-18T18:09:02;91468.31;;;3.96;100.00
9935;BME280;5006;41.828;23.478;2022-12-18T18:10:08;91471.13;;;3.91;100.00
9935;BME280;5006;41.828;23.478;2022-12-18T18:11:16;91461.00;;;3.85;100.00
9935;BME280;5006;41.828;23.478;2022-12-18T18:12:40;91474.88;;;3.90;100.00
9935;BME280;5006;41.828;23.478;2022-12-18T18:14:04;91466.78;;;3.78;100.00
9935;BME280;5006;41.828;23.478;2022-12-18T18:15:10;91469.91;;;3.80;100.00
9935;BME280;5006;41.828;23.478;2022-12-18T18:16:16;91477.72;;;3.85;100.00
9935;BME280;5006;41.828;23.478;2022-12-18T18:17:22;91472.41;;;3.77;100.00
9935;BME280;5006;41.828;23.478;2022-12-18T18:18:27;91478.81;;;3.76;100.00
9935;BME280;5006;41.828;23.478;2022-12-18T18:19:34;91479.75;;;3.80;100.00
9935;BME280;5006;41.828;23.478;2022-12-18T18:20:39;91474.13;;;3.81;100.00
9935;BME280;5006;41.828;23.478;2022-12-18T18:21:46;91482.22;;;3.85;100.00
9935;BME280;5006;41.828;23.478;2022-12-18T18:22:52;91482.69;;;3.87;100.00
9935;BME280;5006;41.828;23.478;2022-12-18T18:23:59;91488.31;;;3.85;100.00
9935;BME280;5006;41.828;23.478;2022-12-18T18:25:05;91485.50;;;3.90;100.00
9935;BME280;5006;41.828;23.478;2022-12-18T18:26:11;91482.19;;;3.93;100.00
9935;BME280;5006;41.828;23.478;2022-12-18T18:27:15;91483.41;;;4.04;100.00
9935;BME280;5006;41.828;23.478;2022-12-18T18:28:21;91482.47;;;4.09;100.00
9935;BME280;5006;41.828;23.478;2022-12-18T18:29:27;91496.34;;;4.14;100.00
9935;BME280;5006;41.828;23.478;2022-12-18T18:30:35;91489.28;;;4.18;100.00
9935;BME280;5006;41.828;23.478;2022-12-18T18:31:40;91491.94;;;4.18;100.00
9935;BME280;5006;41.828;23.478;2022-12-18T18:32:46;91500.34;;;4.20;100.00
9935;BME280;5006;41.828;23.478;2022-12-18T18:33:51;91490.69;;;4.24;100.00
9935;BME280;5006;41.828;23.478;2022-12-18T18:34:59;91495.19;;;4.23;100.00
9935;BME280;5006;41.828;23.478;2022-12-18T18:36:09;91497.53;;;4.25;100.00
9935;BME280;5006;41.828;23.478;2022-12-18T18:37:14;91502.22;;;4.28;100.00
9935;BME280;5006;41.828;23.478;2022-12-18T18:38:21;91505.66;;;4.20;100.00
9935;BME280;5006;41.828;23.478;2022-12-18T18:39:26;91494.44;;;4.23;100.00
9935;BME280;5006;41.828;23.478;2022-12-18T18:40:32;91496.91;;;4.28;100.00
9935;BME280;5006;41.828;23.478;2022-12-18T18:41:38;91498.00;;;4.27;100.00
9935;BME280;5006;41.828;23.478;2022-12-18T18:42:44;91507.16;;;4.38;100.00
9935;BME280;5006;41.828;23.478;2022-12-18T18:43:53;91506.56;;;4.32;100.00
9935;BME280;5006;41.828;23.478;2022-12-18T18:44:59;91507.47;;;4.36;100.00
9935;BME280;5006;41.828;23.478;2022-12-18T18:46:05;91505.00;;;4.31;100.00
9935;BME280;5006;41.828;23.478;2022-12-18T18:47:09;91515.47;;;4.28;100.00
9935;BME280;5006;41.828;23.478;2022-12-18T18:48:15;91516.56;;;4.27;100.00
9935;BME280;5006;41.828;23.478;2022-12-18T18:49:21;91513.63;;;4.28;100.00
9935;BME280;5006;41.828;23.478;2022-12-18T18:50:31;91532.50;;;4.27;100.00
9935;BME280;5006;41.828;23.478;2022-12-18T18:51:36;91526.91;;;4.20;100.00
9935;BME280;5006;41.828;23.478;2022-12-18T18:52:42;91523.28;;;4.24;100.00
9935;BME280;5006;41.828;23.478;2022-12-18T18:53:47;91517.53;;;4.22;100.00
9935;BME280;5006;41.828;23.478;2022-12-18T18:54:53;91515.78;;;4.26;100.00
9935;BME280;5006;41.828;23.478;2022-12-18T18:55:59;91519.69;;;4.29;100.00
9935;BME280;5006;41.828;23.478;2022-12-18T18:57:03;91518.94;;;4.28;100.00
9935;BME280;5006;41.828;23.478;2022-12-18T18:58:09;91517.50;;;4.31;100.00
9935;BME280;5006;41.828;23.478;2022-12-18T18:59:14;91516.84;;;4.34;100.00
9935;BME280;5006;41.828;23.478;2022-12-18T19:00:20;91509.66;;;4.34;100.00
9935;BME280;5006;41.828;23.478;2022-12-18T19:01:25;91514.78;;;4.39;100.00
9935;BME280;5006;41.828;23.478;2022-12-18T19:02:31;91524.16;;;4.45;100.00
9935;BME280;5006;41.828;23.478;2022-12-18T19:03:37;91529.97;;;4.39;100.00
9935;BME280;5006;41.828;23.478;2022-12-18T19:04:42;91534.63;;;4.42;100.00